Flight Track Log - Related Links

Times and Time Zones

All times are in EDT time to prevent confusion due to time zone crossing. See the SKW5517 flight status page for this flight to view local times or setup timezone preferences in your user account.

Time Position Orientation Groundspeed Altitude Reporting Facility
EDT Latitude Longitude Course Direction KTS MPH feet Rate Location/Type
Thu 05:58:52 PM 47.9347 -97.1811 227° Southwest 138 159 1,600  Level Minneapolis Center
Thu 05:59:29 PM 47.9117 -97.1817 181° South 150 173 2,700 1,220 Climbing Minneapolis Center
Thu 05:59:51 PM 47.8969 -97.1825 182° South 172 198 2,800 716 Climbing Minneapolis Center
Thu 06:00:36 PM 47.8539 -97.1911 188° South 189 217 3,500 871 Climbing Minneapolis Center
Thu 06:00:53 PM 47.8481 -97.1997 225° Southwest 187 215 3,700 2,278 Climbing Minneapolis Center
Thu 06:01:55 PM 47.8019 -97.2725 227° Southwest 223 257 6,500 3,339 Climbing Minneapolis Center
Thu 06:02:00 PM 47.6432 -97.6098 224° Southwest  Level FlightAware Approximate
Thu 06:02:57 PM 47.7719 -97.3892 249° West 243 280 10,600  Level Minneapolis Center
Thu 06:03:00 PM 47.5682 -97.7170 224° Southwest  Level FlightAware Approximate
Thu 06:03:59 PM 47.7422 -97.4881 246° West 254 292 13,600  Level Minneapolis Center
Thu 06:04:00 PM 47.4951 -97.8270 227° Southwest  Level FlightAware Approximate
Thu 06:05:02 PM 47.6939 -97.5786 232° Southwest 270 311 15,300  Level Minneapolis Center
Thu 06:06:16 PM 47.6150 -97.6922 224° Southwest 305 351 17,000 1,632 Climbing Minneapolis Center
Thu 06:07:18 PM 47.5456 -97.7958 225° Southwest 329 379 19,000 1,887 Climbing Minneapolis Center
Thu 06:08:20 PM 47.4758 -97.8997 225° Southwest 338 389 20,900 1,790 Climbing Minneapolis Center
Thu 06:09:22 PM 47.4019 -98.0056 224° Southwest 351 404 22,700 1,597 Climbing Minneapolis Center
Thu 06:10:24 PM 47.3300 -98.1094 224° Southwest 359 413 24,200 1,355 Climbing Minneapolis Center
Thu 06:11:26 PM 47.2431 -98.2353 225° Southwest 364 419 25,500 1,113 Climbing Minneapolis Center
Thu 06:12:28 PM 47.1678 -98.3439 224° Southwest 375 432 26,500 960 Climbing Minneapolis Center
Thu 06:13:31 PM 47.0917 -98.4544 225° Southwest 383 441 27,500 960 Climbing Minneapolis Center
Thu 06:14:33 PM 47.0147 -98.5628 224° Southwest 384 442 28,500 968 Climbing Minneapolis Center
Thu 06:15:35 PM 46.9378 -98.6719 224° Southwest 385 443 29,500 968 Climbing Minneapolis Center
Thu 06:16:37 PM 46.8472 -98.7547 212° Southwest 385 443 30,500 1,065 Climbing Minneapolis Center
Thu 06:17:39 PM 46.7353 -98.8475 210° Southwest 384 442 31,700 726 Climbing Minneapolis Center
Thu 06:18:41 PM 46.6439 -98.9242 210° Southwest 381 438 32,000 145 Climbing Minneapolis Center
Thu 06:19:43 PM 46.5497 -99.0064 211° Southwest 391 450 32,000  Level Minneapolis Center
Thu 06:20:45 PM 46.4511 -99.0883 210° Southwest 404 465 32,000  Level Minneapolis Center
Thu 06:21:47 PM 46.3503 -99.1711 210° Southwest 413 475 32,000  Level Minneapolis Center
Thu 06:22:49 PM 46.2492 -99.2547 210° Southwest 418 481 32,000  Level Minneapolis Center
Thu 06:23:51 PM 46.1303 -99.3536 210° Southwest 419 482 32,000  Level Minneapolis Center
Thu 06:24:53 PM 46.0281 -99.4367 209° Southwest 421 484 32,000  Level Minneapolis Center
Thu 06:25:55 PM 45.9258 -99.5208 210° Southwest 422 486 32,000  Level Minneapolis Center
Thu 06:26:58 PM 45.8236 -99.6031 209° Southwest 423 487 32,000  Level Minneapolis Center
Thu 06:28:00 PM 45.7003 -99.7028 209° Southwest 423 487 32,000  Level Minneapolis Center
Thu 06:29:02 PM 45.5992 -99.7847 210° Southwest 422 486 32,000  Level Minneapolis Center
Thu 06:30:04 PM 45.4969 -99.8656 209° Southwest 421 484 32,000  Level Minneapolis Center
Thu 06:31:06 PM 45.3950 -99.9467 209° Southwest 420 483 32,000  Level Minneapolis Center
Thu 06:32:08 PM 45.2944 -100.0275 209° Southwest 420 483 32,000  Level Minneapolis Center
Thu 06:33:10 PM 45.1753 -100.1219 209° Southwest 416 479 32,000  Level Minneapolis Center
Thu 06:34:12 PM 45.0764 -100.2000 209° Southwest 416 479 32,000  Level Minneapolis Center
Thu 06:35:14 PM 44.9767 -100.2786 209° Southwest 416 479 32,000  Level Minneapolis Center
Thu 06:36:16 PM 44.8750 -100.3589 209° Southwest 420 483 32,000  Level Minneapolis Center
Thu 06:37:18 PM 44.7733 -100.4386 209° Southwest 420 483 32,000  Level Minneapolis Center
Thu 06:38:20 PM 44.6503 -100.5325 209° Southwest 421 484 32,000  Level Minneapolis Center
Thu 06:39:22 PM 44.5483 -100.6122 209° Southwest 420 483 32,000  Level Minneapolis Center
Thu 06:41:27 PM 44.3419 -100.7706 209° Southwest 423 487 32,000  Level Minneapolis Center
Thu 06:42:29 PM 44.2394 -100.8483 209° Southwest 421 484 32,000  Level Minneapolis Center
Thu 06:43:31 PM 44.1297 -100.9317 209° Southwest 421 484 32,000  Level Minneapolis Center
Thu 06:44:33 PM 44.0108 -101.0217 209° Southwest 424 488 32,000  Level Minneapolis Center
Thu 06:46:11 PM 43.8436 -101.1469 208° Southwest 426 490 32,000  Level Denver Center
Thu 06:46:37 PM 43.8022 -101.1803 210° Southwest 427 491 32,000  Level Minneapolis Center
Thu 06:47:39 PM 43.6975 -101.2594 209° Southwest 429 494 32,000  Level Minneapolis Center
Thu 06:48:41 PM 43.5919 -101.3372 208° Southwest 430 495 32,000  Level Minneapolis Center
Thu 06:49:17 PM 43.5278 -101.3833 208° Southwest 431 496 32,000  Level Denver Center
Thu 06:50:19 PM 43.4228 -101.4631 209° Southwest 432 497 32,000  Level Denver Center
Thu 06:51:21 PM 43.2953 -101.5542 207° Southwest 431 496 32,000  Level Denver Center
Thu 06:52:23 PM 43.1864 -101.6286 207° Southwest 436 502 32,000  Level Denver Center
Thu 06:53:25 PM 43.0769 -101.7014 206° Southwest 437 503 32,000  Level Denver Center
Thu 06:54:27 PM 42.9694 -101.7742 206° Southwest 440 506 32,000  Level Denver Center
Thu 06:55:29 PM 42.8467 -101.8542 206° Southwest 434 499 32,000  Level Denver Center
Thu 06:56:31 PM 42.7419 -101.9250 206° Southwest 437 503 32,000  Level Denver Center
Thu 06:57:33 PM 42.6183 -102.0061 206° Southwest 440 506 32,000  Level Denver Center
Thu 06:58:34 PM 42.5300 -102.0633 206° Southwest 441 507 32,000  Level Denver Center
Thu 06:59:37 PM 42.4089 -102.1425 206° Southwest 433 498 32,000  Level Denver Center
Thu 07:00:39 PM 42.2872 -102.2219 206° Southwest 433 498 32,000  Level Denver Center
Thu 07:01:41 PM 42.1842 -102.2892 206° Southwest 429 494 32,000  Level Denver Center
Thu 07:02:43 PM 42.0611 -102.3703 206° Southwest 437 503 32,000  Level Denver Center
Thu 07:03:45 PM 41.9567 -102.4381 206° Southwest 437 503 32,000  Level Denver Center
Thu 07:04:47 PM 41.8336 -102.5164 205° Southwest 437 503 32,000  Level Denver Center
Thu 07:05:49 PM 41.7161 -102.5908 205° Southwest 438 504 32,000  Level Denver Center
Thu 07:06:51 PM 41.6053 -102.6622 206° Southwest 438 504 32,000  Level Denver Center
Thu 07:07:53 PM 41.5011 -102.7278 205° Southwest 434 499 32,000  Level Denver Center
Thu 07:08:55 PM 41.3786 -102.8053 202° Southwest 435 501 32,000  Level Denver Center
Thu 07:09:00 PM 41.3907 -102.7871 202° Southwest  Level FlightAware Approximate
Thu 07:09:57 PM 41.2747 -102.8700 205° Southwest 431 496 32,000  Level Denver Center
Thu 07:10:59 PM 41.1631 -102.9417 206° Southwest 429 494 32,000  Level Denver Center
Thu 07:12:01 PM 41.0636 -103.0289 213° Southwest 422 486 32,000  Level Denver Center
Thu 07:13:03 PM 40.9864 -103.1361 226° Southwest 418 481 32,000  Level Denver Center
Thu 07:14:05 PM 40.8950 -103.2614 226° Southwest 423 487 32,000 -194 Level Denver Center
Thu 07:15:07 PM 40.8203 -103.3669 227° Southwest 416 479 31,600 -1,403 Descending Denver Center
Thu 07:16:09 PM 40.7336 -103.4869 226° Southwest 406 467 29,100 -2,129 Descending Denver Center
Thu 07:17:11 PM 40.6672 -103.5772 226° Southwest 366 421 27,200 -1,645 Descending Denver Center
Thu 07:18:13 PM 40.5883 -103.6858 226° Southwest 367 422 25,700 -1,839 Descending Denver Center
Thu 07:19:15 PM 40.5228 -103.7764 226° Southwest 356 410 23,400 -2,177 Descending Denver Center
Thu 07:20:17 PM 40.4533 -103.8722 226° Southwest 324 373 21,200 -2,032 Descending Denver Center
Thu 07:21:19 PM 40.3925 -103.9553 226° Southwest 310 357 19,200 -1,694 Descending Denver Center
Thu 07:22:21 PM 40.3361 -104.0342 227° Southwest 300 345 17,700 -1,355 Descending Denver Center
Thu 07:23:23 PM 40.2772 -104.1142 226° Southwest 285 328 16,400 -1,258 Descending Denver Center
Thu 07:24:25 PM 40.2444 -104.2044 245° Southwest 283 326 15,100 -1,306 Descending Denver Center
Thu 07:25:27 PM 40.2264 -104.3097 257° West 277 319 13,700 -1,306 Descending Denver Center
Thu 07:26:29 PM 40.1825 -104.3950 236° Southwest 278 320 12,400 -1,258 Descending Denver Center
Thu 07:27:31 PM 40.1406 -104.4731 235° Southwest 272 313 11,100 -1,333 Descending Denver Center
Thu 07:27:50 PM 40.1167 -104.5000 221° Southwest 272 313 10,600 -1,975 Descending Denver TRACON
Thu 07:28:50 PM 40.0667 -104.5833 232° Southwest 276 318 8,500 -2,100 Descending Denver TRACON

Login

Don't have an account? Register now (free) for customized features, flight alerts, and more!